Time;durP1;ratioP1;P1;durP2;ratioP2;P2;SDS_P1;SDS_P2;PMS_P1;PMS_P2;Temp;Humidity;BMP_temperature;BMP_pressure;BME280_temperature;BME280_humidity;BME280_pressure;Samples;Min_cycle;Max_cycle;Signal;HPM_P1;HPM_P2
2021/05/10 00:01:36;;;;;;;4.50;2.80;;;;;;;12.88;49.51;100456.22;104317;1099;79288;-76
2021/05/10 00:03:41;;;;;;;3.50;2.40;;;;;;;12.88;49.63;100452.70;104322;1104;77501;-76
2021/05/10 00:05:48;;;;;;;6.50;3.70;;;;;;;12.84;49.61;100446.00;104293;1104;78008;-76
2021/05/10 00:07:53;;;;;;;4.10;2.30;;;;;;;12.79;50.29;100443.91;104340;1099;78620;-75
2021/05/10 00:09:59;;;;;;;3.70;2.70;;;;;;;12.79;49.83;100459.33;104324;1104;77669;-76
2021/05/10 00:12:08;;;;;;;3.60;2.50;;;;;;;12.76;50.27;100459.73;104291;1104;79254;-76
2021/05/10 00:14:15;;;;;;;3.90;2.60;;;;;;;12.70;50.04;100455.11;104322;1098;77866;-77
2021/05/10 00:16:21;;;;;;;3.50;2.30;;;;;;;12.68;49.93;100454.48;104335;1104;77744;-75
2021/05/10 00:18:27;;;;;;;4.00;2.50;;;;;;;12.65;50.31;100458.44;104324;1098;78457;-75
2021/05/10 00:20:35;;;;;;;4.10;3.10;;;;;;;12.59;50.45;100452.97;104309;1104;79400;-75
2021/05/10 00:22:40;;;;;;;6.20;4.30;;;;;;;12.59;50.63;100472.78;104318;1104;78113;-76
2021/05/10 00:24:46;;;;;;;7.20;3.70;;;;;;;12.60;50.78;100465.49;104314;1104;78933;-75
2021/05/10 00:26:52;;;;;;;6.10;3.60;;;;;;;12.56;50.84;100464.20;104310;1098;78098;-61
2021/05/10 00:28:57;;;;;;;7.50;4.40;;;;;;;12.51;50.85;100456.69;104329;1105;77771;-62
2021/05/10 00:31:03;;;;;;;4.90;3.60;;;;;;;12.48;50.91;100461.66;104317;1104;79083;-74
2021/05/10 00:33:09;;;;;;;5.00;3.10;;;;;;;12.45;50.95;100457.48;104324;1104;77840;-76
2021/05/10 00:35:17;;;;;;;5.80;3.10;;;;;;;12.40;51.18;100466.22;104320;1098;77050;-76
2021/05/10 00:37:22;;;;;;;5.10;3.40;;;;;;;12.35;51.25;100452.45;104288;1104;77262;-75
2021/05/10 00:39:28;;;;;;;4.80;2.70;;;;;;;12.30;51.37;100459.50;104333;1104;77609;-75
2021/05/10 00:41:34;;;;;;;4.40;2.60;;;;;;;12.25;51.80;100465.48;104304;1104;78818;-62
2021/05/10 00:43:39;;;;;;;3.80;2.30;;;;;;;12.26;51.73;100458.20;104334;1104;77611;-62
2021/05/10 00:45:48;;;;;;;4.90;2.40;;;;;;;12.24;51.58;100460.28;104305;1104;78148;-62
2021/05/10 00:47:57;;;;;;;4.60;2.60;;;;;;;12.17;51.75;100465.64;104329;1105;78446;-62
2021/05/10 00:50:04;;;;;;;4.40;2.70;;;;;;;12.14;51.71;100455.20;104340;1104;78808;-62
2021/05/10 00:52:10;;;;;;;3.90;2.50;;;;;;;12.12;51.89;100456.44;104307;1104;78020;-74
2021/05/10 00:54:16;;;;;;;3.80;2.50;;;;;;;12.08;51.89;100456.02;104292;1104;78459;-75
2021/05/10 00:56:21;;;;;;;6.80;3.00;;;;;;;12.11;52.19;100457.49;104314;1099;77953;-75
2021/05/10 00:58:27;;;;;;;3.60;2.50;;;;;;;12.08;52.06;100457.88;104289;1098;78613;-75
2021/05/10 01:00:35;;;;;;;4.70;2.40;;;;;;;12.03;52.58;100453.04;104329;1104;77343;-75
2021/05/10 01:02:41;;;;;;;3.90;2.40;;;;;;;12.04;52.46;100462.01;104313;1104;78303;-76
2021/05/10 01:04:47;;;;;;;4.50;2.80;;;;;;;12.01;52.55;100454.27;104315;1104;77826;-76
2021/05/10 01:06:53;;;;;;;6.50;3.60;;;;;;;12.02;52.62;100454.09;104365;1099;78938;-76
2021/05/10 01:08:58;;;;;;;5.50;3.50;;;;;;;11.98;53.00;100454.66;104313;1104;77976;-75
2021/05/10 01:11:04;;;;;;;4.60;2.50;;;;;;;11.96;52.61;100454.88;104262;1104;79148;-74
2021/05/10 01:13:09;;;;;;;3.50;2.70;;;;;;;11.91;52.48;100453.79;104300;1104;77089;-75
2021/05/10 01:15:19;;;;;;;6.10;3.40;;;;;;;11.84;52.69;100449.16;104304;1100;77155;-74
2021/05/10 01:17:25;;;;;;;6.90;4.00;;;;;;;11.79;52.71;100448.07;104329;1104;78510;-62
2021/05/10 01:19:32;;;;;;;5.10;3.40;;;;;;;11.82;53.10;100448.52;104327;1104;78770;-62
2021/05/10 01:21:39;;;;;;;4.50;2.80;;;;;;;11.78;53.12;100449.94;104288;1105;78482;-75
2021/05/10 01:23:45;;;;;;;3.80;2.20;;;;;;;11.73;53.24;100448.84;104327;1104;77934;-74
2021/05/10 01:25:51;;;;;;;3.50;2.50;;;;;;;11.70;53.05;100446.56;104265;1104;76994;-69
2021/05/10 01:28:01;;;;;;;3.40;2.40;;;;;;;11.65;52.98;100452.50;104340;1104;78355;-61
2021/05/10 01:30:15;;;;;;;5.40;3.20;;;;;;;11.61;53.21;100455.80;104305;1104;77640;-61
2021/05/10 01:32:21;;;;;;;4.10;2.80;;;;;;;11.56;53.41;100450.14;104320;1104;78986;-75
2021/05/10 01:34:30;;;;;;;4.90;3.10;;;;;;;11.53;53.40;100451.38;104306;1104;77740;-75
2021/05/10 01:36:35;;;;;;;6.30;4.20;;;;;;;11.58;53.56;100458.89;104298;1104;78816;-62
2021/05/10 01:38:41;;;;;;;3.60;2.30;;;;;;;11.55;53.71;100454.72;104288;1104;78612;-61
2021/05/10 01:40:49;;;;;;;4.40;2.70;;;;;;;11.57;54.25;100457.20;104324;1104;78286;-61
2021/05/10 01:42:55;;;;;;;3.90;2.60;;;;;;;11.54;53.68;100461.14;104355;1104;78383;-61
2021/05/10 01:45:01;;;;;;;4.70;2.50;;;;;;;11.48;53.75;100456.50;104319;1104;77412;-62
2021/05/10 01:47:07;;;;;;;4.50;2.80;;;;;;;11.54;53.98;100463.01;104310;1104;77052;-61
2021/05/10 01:49:13;;;;;;;3.80;2.70;;;;;;;11.51;53.80;100464.23;104300;1104;78882;-62
2021/05/10 01:51:23;;;;;;;4.40;2.60;;;;;;;11.50;53.91;100461.73;104277;1104;78165;-76
2021/05/10 01:53:29;;;;;;;5.00;3.10;;;;;;;11.47;53.84;100468.38;104323;1104;77796;-75
2021/05/10 01:55:36;;;;;;;4.70;2.50;;;;;;;11.42;53.75;100472.69;104318;1104;77072;-76
2021/05/10 01:57:47;;;;;;;4.00;2.70;;;;;;;11.37;53.90;100467.02;104350;1104;78361;-76
2021/05/10 01:59:52;;;;;;;4.00;2.40;;;;;;;11.33;53.96;100466.56;104345;1104;78148;-76
2021/05/10 02:02:01;;;;;;;3.00;2.20;;;;;;;11.30;54.23;100474.22;104307;1104;77735;-62
2021/05/10 02:04:07;;;;;;;5.60;2.50;;;;;;;11.30;54.21;100474.22;104319;1105;78230;-62
2021/05/10 02:06:16;;;;;;;2.90;2.40;;;;;;;11.24;54.17;100468.55;104319;1104;78786;-62
2021/05/10 02:08:25;;;;;;;4.60;2.80;;;;;;;11.22;54.23;100476.02;104324;1104;77662;-62
2021/05/10 02:10:33;;;;;;;4.30;2.80;;;;;;;11.21;54.23;100474.34;104323;1105;77604;-62
2021/05/10 02:12:42;;;;;;;6.00;2.50;;;;;;;11.16;54.52;100474.08;104334;1104;76783;-76
2021/05/10 02:14:48;;;;;;;3.90;2.80;;;;;;;11.18;54.60;100479.28;104322;1104;79104;-75
2021/05/10 02:16:56;;;;;;;4.50;2.10;;;;;;;11.17;54.78;100483.88;104291;1104;78340;-62
2021/05/10 02:19:02;;;;;;;3.90;2.90;;;;;;;11.15;54.70;100485.91;104306;1104;77494;-63
2021/05/10 02:21:11;;;;;;;3.80;2.60;;;;;;;11.12;54.84;100480.06;104314;1104;78396;-62
2021/05/10 02:23:20;;;;;;;3.90;3.10;;;;;;;11.06;55.48;100475.42;104300;1104;78142;-63
2021/05/10 02:25:28;;;;;;;4.30;3.00;;;;;;;11.05;55.27;100481.84;104342;1104;76922;-63
2021/05/10 02:27:34;;;;;;;4.80;2.80;;;;;;;11.03;55.43;100482.05;104330;1104;76987;-74
2021/05/10 02:29:42;;;;;;;4.40;2.40;;;;;;;11.00;55.31;100485.13;104328;1104;78370;-76
2021/05/10 02:31:49;;;;;;;3.90;2.20;;;;;;;10.99;55.80;100485.30;104306;1104;78771;-76
2021/05/10 02:33:57;;;;;;;5.30;3.10;;;;;;;10.95;55.66;100489.42;104332;1104;77662;-73
2021/05/10 02:36:04;;;;;;;4.30;2.10;;;;;;;10.94;55.51;100491.28;104307;1100;76971;-73
2021/05/10 02:38:11;;;;;;;3.90;2.50;;;;;;;10.90;55.79;100486.45;104306;1104;78273;-74
2021/05/10 02:40:20;;;;;;;4.30;2.80;;;;;;;10.87;55.55;100493.08;104299;1104;76970;-75
2021/05/10 02:42:26;;;;;;;3.70;2.70;;;;;;;10.83;55.98;100496.33;104329;1104;77942;-62
2021/05/10 02:44:32;;;;;;;4.50;3.10;;;;;;;10.77;56.00;100489.81;104320;1104;78455;-63
2021/05/10 02:46:37;;;;;;;6.20;2.60;;;;;;;10.74;56.25;100492.89;104347;1104;77689;-76
2021/05/10 02:48:43;;;;;;;4.00;2.50;;;;;;;10.73;56.18;100499.34;104310;1104;78640;-75
2021/05/10 02:50:52;;;;;;;3.70;2.50;;;;;;;10.70;56.27;100494.31;104293;1104;77656;-75
2021/05/10 02:52:58;;;;;;;3.70;2.70;;;;;;;10.68;56.63;100485.56;104340;1104;77540;-74
2021/05/10 02:55:06;;;;;;;4.40;2.60;;;;;;;10.64;56.51;100493.19;104327;1099;77312;-76
2021/05/10 02:57:14;;;;;;;4.50;2.40;;;;;;;10.64;56.75;100490.48;104291;1104;77971;-74
2021/05/10 02:59:20;;;;;;;4.20;2.40;;;;;;;10.63;56.72;100494.20;104323;1099;79578;-74
2021/05/10 03:01:25;;;;;;;4.60;2.90;;;;;;;10.61;57.48;100495.42;104319;1098;78302;-61
2021/05/10 03:03:31;;;;;;;3.90;2.50;;;;;;;10.64;57.06;100493.19;104326;1104;77793;-61
2021/05/10 03:05:38;;;;;;;4.20;3.00;;;;;;;10.61;56.83;100492.72;104301;1104;79600;-61
2021/05/10 03:07:47;;;;;;;5.20;2.80;;;;;;;10.63;57.13;100496.06;104311;1099;78615;-75
2021/05/10 03:09:53;;;;;;;5.60;3.10;;;;;;;10.64;57.01;100503.16;104291;1104;77197;-74
2021/05/10 03:11:58;;;;;;;5.20;2.50;;;;;;;10.64;57.21;100503.16;104308;1100;78305;-74
2021/05/10 03:14:05;;;;;;;4.10;2.50;;;;;;;10.62;56.85;100500.66;104281;1104;79579;-73
2021/05/10 03:16:10;;;;;;;6.90;2.70;;;;;;;10.63;57.42;100498.77;104369;1104;78738;-75
2021/05/10 03:18:16;;;;;;;3.80;2.70;;;;;;;10.65;57.36;100502.98;104337;1104;77967;-74
2021/05/10 03:20:23;;;;;;;3.30;2.50;;;;;;;10.68;57.11;100509.03;104347;1099;78483;-74
2021/05/10 03:22:29;;;;;;;5.00;2.90;;;;;;;10.72;57.15;100513.02;104320;1104;77334;-60
2021/05/10 03:24:39;;;;;;;6.40;2.80;;;;;;;10.72;57.27;100513.02;104313;1104;77530;-61
2021/05/10 03:26:44;;;;;;;6.00;3.20;;;;;;;10.74;57.18;100514.50;104345;1098;78673;-61
2021/05/10 03:28:50;;;;;;;4.10;2.50;;;;;;;10.75;57.46;100513.48;104314;1104;78335;-62
2021/05/10 03:30:58;;;;;;;4.10;2.60;;;;;;;10.81;57.25;100515.45;104315;1098;78951;-73
2021/05/10 03:33:07;;;;;;;3.60;2.80;;;;;;;10.87;57.01;100522.81;104284;1104;78914;-72
2021/05/10 03:35:17;;;;;;;4.70;3.00;;;;;;;10.96;57.08;100523.55;104307;1104;77780;-75
2021/05/10 03:37:23;;;;;;;5.00;2.80;;;;;;;11.13;57.17;100522.28;104363;1104;76865;-74
2021/05/10 03:39:29;;;;;;;6.00;2.40;;;;;;;11.34;56.97;100527.75;104315;1104;77657;-75
2021/05/10 03:41:34;;;;;;;4.30;2.50;;;;;;;12.12;56.84;100534.97;104304;1100;78568;-75
2021/05/10 03:43:40;;;;;;;3.80;2.80;;;;;;;13.56;55.89;100527.64;104295;1099;78305;-74
2021/05/10 03:45:47;;;;;;;3.20;2.20;;;;;;;14.93;54.08;100524.04;104305;1103;78010;-74
2021/05/10 03:47:53;;;;;;;4.40;2.40;;;;;;;16.12;52.09;100526.95;104319;1104;77248;-76
2021/05/10 03:50:02;;;;;;;2.60;2.10;;;;;;;17.10;51.18;100521.34;104306;1104;77536;-75
2021/05/10 03:52:08;;;;;;;5.10;2.70;;;;;;;17.79;48.79;100525.47;104335;1104;77510;-75
2021/05/10 03:54:14;;;;;;;5.90;2.70;;;;;;;18.60;46.35;100528.33;104334;1104;78583;-76
2021/05/10 03:56:19;;;;;;;5.90;2.60;;;;;;;19.29;46.56;100521.06;104275;1104;77060;-62
2021/05/10 03:58:25;;;;;;;4.70;2.30;;;;;;;19.93;44.64;100525.34;104303;1104;79679;-62
2021/05/10 04:00:31;;;;;;;4.60;2.80;;;;;;;20.34;43.05;100524.98;104320;1104;78598;-63
2021/05/10 04:02:37;;;;;;;6.10;2.30;;;;;;;20.97;42.30;100523.70;104261;1098;78151;-73
2021/05/10 04:04:46;;;;;;;5.60;2.00;;;;;;;21.55;41.23;100520.33;104338;1104;77936;-75
2021/05/10 04:07:08;;;;;;;3.40;1.70;;;;;;;22.09;39.53;100524.75;104307;1104;77325;-62
2021/05/10 04:14:03;;;;;;;;;;;;;;;22.66;36.85;100529.65;104322;1104;78757;-62
2021/05/10 04:16:10;;;;;;;3.20;2.20;;;;;;;22.59;36.23;100531.75;104318;1104;77790;-62
2021/05/10 04:18:15;;;;;;;3.00;2.00;;;;;;;21.86;36.33;100526.98;104314;1104;77916;-62
2021/05/10 04:20:22;;;;;;;5.80;2.60;;;;;;;21.28;36.08;100527.71;104332;1098;77167;-62
2021/05/10 04:22:27;;;;;;;4.30;2.20;;;;;;;20.30;36.34;100528.48;104359;1104;78641;-76
2021/05/10 04:24:33;;;;;;;5.10;2.60;;;;;;;20.26;36.21;100533.63;104315;1105;77433;-74
2021/05/10 04:26:38;;;;;;;4.30;2.60;;;;;;;20.40;36.65;100531.38;104331;1104;78940;-62
2021/05/10 04:28:44;;;;;;;4.40;2.20;;;;;;;19.58;36.97;100531.02;104314;1104;77709;-62
2021/05/10 04:30:53;;;;;;;4.00;2.50;;;;;;;19.50;37.81;100528.67;104329;1104;78505;-63
2021/05/10 04:33:02;;;;;;;5.30;2.40;;;;;;;19.90;37.90;100525.83;104359;1104;77004;-61
2021/05/10 04:35:11;;;;;;;3.50;2.30;;;;;;;21.24;37.08;100534.80;104333;1104;78608;-62
2021/05/10 04:37:17;;;;;;;6.30;2.20;;;;;;;22.51;35.67;100524.82;104334;1104;77396;-75
2021/05/10 04:39:22;;;;;;;3.90;2.30;;;;;;;23.17;34.44;100522.48;104310;1104;78317;-76
2021/05/10 04:41:28;;;;;;;3.50;2.20;;;;;;;23.67;33.72;100516.34;104287;1104;77807;-62
2021/05/10 04:43:33;;;;;;;4.20;2.30;;;;;;;24.46;33.40;100520.28;104337;1098;78331;-62
2021/05/10 04:45:39;;;;;;;4.00;2.10;;;;;;;25.17;32.16;100518.20;104316;1104;77936;-62
2021/05/10 04:47:46;;;;;;;3.80;2.10;;;;;;;25.90;31.28;100517.58;104296;1104;78399;-62
2021/05/10 04:49:52;;;;;;;3.70;2.20;;;;;;;26.65;30.93;100513.34;104306;1105;79402;-61
2021/05/10 04:51:57;;;;;;;4.00;2.20;;;;;;;27.23;29.71;100525.19;104335;1099;79584;-76
2021/05/10 04:54:04;;;;;;;4.50;2.40;;;;;;;27.27;28.82;100512.39;104304;1105;78854;-76
2021/05/10 04:56:10;;;;;;;3.80;2.80;;;;;;;27.20;28.21;100511.91;104305;1104;76873;-66
2021/05/10 04:58:16;;;;;;;3.00;2.00;;;;;;;27.91;27.99;100509.00;104311;1104;77269;-61
2021/05/10 05:00:23;;;;;;;5.30;2.70;;;;;;;27.91;27.48;100517.33;104319;1104;78503;-63
2021/05/10 05:02:28;;;;;;;3.80;2.00;;;;;;;28.36;27.35;100510.25;104319;1104;78893;-62
2021/05/10 05:04:34;;;;;;;4.60;1.90;;;;;;;28.61;26.09;100512.58;104309;1104;76933;-62
2021/05/10 05:06:40;;;;;;;3.20;2.00;;;;;;;28.97;25.32;100521.11;104315;1104;78763;-62
2021/05/10 05:08:45;;;;;;;3.60;2.00;;;;;;;29.49;25.32;100512.25;104338;1105;78334;-62
2021/05/10 05:10:51;;;;;;;3.50;2.20;;;;;;;29.59;25.29;100516.75;104272;1104;78749;-67
2021/05/10 05:12:57;;;;;;;4.50;2.30;;;;;;;30.06;24.89;100520.98;104304;1104;79891;-63
2021/05/10 05:15:03;;;;;;;4.90;2.20;;;;;;;30.28;24.05;100512.63;104321;1098;79387;-63
2021/05/10 05:17:09;;;;;;;3.90;2.20;;;;;;;30.09;23.56;100509.20;104342;1099;77968;-75
2021/05/10 05:19:14;;;;;;;3.20;2.20;;;;;;;30.45;23.82;100512.78;104316;1104;77318;-73
2021/05/10 05:21:20;;;;;;;2.70;1.90;;;;;;;30.77;23.43;100506.88;104302;1104;79281;-63
2021/05/10 05:23:28;;;;;;;3.30;2.20;;;;;;;30.94;23.07;100509.79;104287;1104;77171;-62
2021/05/10 05:25:33;;;;;;;3.40;1.90;;;;;;;31.16;23.25;100511.67;104350;1104;77696;-63
2021/05/10 05:27:39;;;;;;;3.80;2.20;;;;;;;31.26;22.26;100516.16;104344;1099;79265;-63
2021/05/10 05:29:45;;;;;;;3.40;2.20;;;;;;;31.50;21.68;100513.77;104338;1104;77251;-62
2021/05/10 05:31:51;;;;;;;3.80;2.10;;;;;;;31.13;22.25;100508.70;104298;1104;78437;-62
2021/05/10 05:33:59;;;;;;;2.90;1.90;;;;;;;31.29;22.25;100515.48;104298;1104;78301;-63
2021/05/10 05:36:07;;;;;;;4.00;2.10;;;;;;;31.68;21.41;100518.23;104334;1104;78306;-73
2021/05/10 05:38:12;;;;;;;3.70;2.00;;;;;;;31.49;21.78;100514.91;104334;1105;79568;-74
2021/05/10 05:40:19;;;;;;;3.60;2.10;;;;;;;31.32;21.43;100509.25;104307;1104;79471;-73
2021/05/10 05:42:25;;;;;;;3.10;2.20;;;;;;;31.34;21.97;100504.98;104297;1104;78863;-62
2021/05/10 05:44:34;;;;;;;5.20;2.40;;;;;;;31.92;21.39;100517.77;104345;1104;76866;-63
2021/05/10 05:46:42;;;;;;;3.30;1.90;;;;;;;32.05;20.81;100520.44;104347;1104;77673;-62
2021/05/10 05:48:48;;;;;;;4.70;2.20;;;;;;;31.99;20.55;100518.91;104312;1104;77822;-63
2021/05/10 05:50:54;;;;;;;4.00;2.30;;;;;;;31.85;20.62;100523.84;104302;1104;77895;-72
2021/05/10 05:52:59;;;;;;;4.80;2.20;;;;;;;32.14;20.67;100514.81;104281;1104;78849;-74
2021/05/10 05:55:07;;;;;;;3.20;1.70;;;;;;;32.35;20.69;100512.17;104330;1098;78128;-74
2021/05/10 05:57:12;;;;;;;4.10;2.00;;;;;;;32.75;20.40;100509.95;104316;1104;79777;-63
2021/05/10 05:59:18;;;;;;;2.80;2.20;;;;;;;33.08;20.27;100506.23;104322;1104;77847;-62
2021/05/10 06:01:25;;;;;;;6.60;2.10;;;;;;;33.36;19.90;100508.55;104327;1104;77404;-63
2021/05/10 06:03:33;;;;;;;4.30;2.10;;;;;;;33.29;19.48;100505.47;104312;1104;78484;-62
2021/05/10 06:05:39;;;;;;;2.90;2.10;;;;;;;33.55;19.96;100504.14;104346;1104;78182;-62
2021/05/10 06:07:47;;;;;;;5.10;2.10;;;;;;;33.81;19.66;100502.02;104337;1104;78995;-61
2021/05/10 06:09:52;;;;;;;5.00;1.80;;;;;;;33.24;18.69;100504.50;104271;1104;78079;-62
2021/05/10 06:12:01;;;;;;;3.00;1.90;;;;;;;33.33;18.96;100500.82;104288;1104;78355;-72
2021/05/10 06:14:08;;;;;;;26.80;24.30;;;;;;;33.39;19.05;100505.91;104297;1104;77468;-76
2021/05/10 06:16:14;;;;;;;4.40;2.60;;;;;;;33.84;19.08;100506.13;104330;1099;79569;-62
2021/05/10 06:18:22;;;;;;;3.60;2.00;;;;;;;34.04;18.09;100504.44;104309;1104;77904;-63
2021/05/10 06:20:31;;;;;;;6.30;2.10;;;;;;;33.47;18.77;100499.42;104304;1099;77942;-62
2021/05/10 06:22:38;;;;;;;3.20;2.00;;;;;;;33.44;18.58;100507.67;104277;1104;77404;-73
2021/05/10 06:24:44;;;;;;;2.50;1.90;;;;;;;33.04;19.20;100508.05;104316;1104;79147;-73
2021/05/10 06:26:50;;;;;;;4.20;2.20;;;;;;;33.53;18.86;100505.65;104278;1104;77679;-74
2021/05/10 06:28:55;;;;;;;3.00;1.80;;;;;;;33.41;18.54;100505.55;104298;1104;79382;-74
2021/05/10 06:31:01;;;;;;;5.60;1.80;;;;;;;33.70;18.99;100508.37;104292;1104;78890;-60
2021/05/10 06:33:07;;;;;;;2.70;2.00;;;;;;;33.62;18.49;100504.44;104312;1104;78244;-61
2021/05/10 06:35:14;;;;;;;6.30;2.60;;;;;;;33.42;18.42;100510.00;104297;1105;79634;-60
2021/05/10 06:37:20;;;;;;;3.00;2.20;;;;;;;33.14;18.45;100501.27;104329;1105;78715;-73
2021/05/10 06:39:27;;;;;;;3.70;1.90;;;;;;;32.83;19.29;100506.30;104282;1104;78146;-72
2021/05/10 06:41:33;;;;;;;5.90;3.20;;;;;;;33.17;19.18;100504.22;104286;1098;78304;-62
2021/05/10 06:43:42;;;;;;;4.50;2.20;;;;;;;33.67;19.26;100506.25;104362;1104;78704;-63
2021/05/10 06:45:47;;;;;;;3.90;2.60;;;;;;;33.76;19.20;100509.81;104326;1104;78591;-62
2021/05/10 06:47:53;;;;;;;9.50;2.50;;;;;;;33.68;18.90;100496.66;104319;1104;77585;-75
2021/05/10 06:49:59;;;;;;;5.30;2.50;;;;;;;34.36;18.69;100500.89;104331;1104;78257;-76
2021/05/10 06:52:05;;;;;;;5.50;2.10;;;;;;;34.31;18.73;100503.91;104290;1104;77130;-75
2021/05/10 06:54:11;;;;;;;5.90;2.60;;;;;;;34.65;17.94;100497.95;104462;1087;78103;-64
2021/05/10 06:56:17;;;;;;;2.80;2.50;;;;;;;34.69;18.11;100503.70;104301;1104;78735;-61
2021/05/10 06:58:24;;;;;;;5.20;2.30;;;;;;;34.70;18.30;100500.52;104338;1104;77920;-62
2021/05/10 07:00:30;;;;;;;5.40;2.80;;;;;;;34.88;18.46;100512.38;104307;1104;77300;-61
2021/05/10 07:02:36;;;;;;;3.00;2.30;;;;;;;34.78;18.68;100501.58;104309;1104;79207;-73
2021/05/10 07:04:42;;;;;;;3.50;2.30;;;;;;;35.30;18.03;100501.78;104338;1099;78537;-75
2021/05/10 07:06:47;;;;;;;3.80;2.00;;;;;;;35.23;17.48;100501.53;104284;1104;78186;-75
2021/05/10 07:08:53;;;;;;;3.70;2.60;;;;;;;34.89;18.13;100500.78;104315;1104;79472;-75
2021/05/10 07:10:59;;;;;;;5.90;1.90;;;;;;;34.55;17.74;100500.35;104318;1098;78294;-73
2021/05/10 07:13:05;;;;;;;3.60;2.20;;;;;;;34.46;17.97;100508.86;104303;1098;77140;-74
2021/05/10 07:15:13;;;;;;;4.70;2.20;;;;;;;34.67;18.07;100506.01;104304;1104;79330;-75
2021/05/10 07:17:19;;;;;;;3.30;2.00;;;;;;;34.97;18.20;100505.47;104318;1104;77426;-76
2021/05/10 07:19:26;;;;;;;4.80;2.10;;;;;;;35.38;17.63;100507.25;104285;1104;78715;-74
2021/05/10 07:21:32;;;;;;;4.60;2.20;;;;;;;35.11;17.85;100504.37;104316;1104;78190;-74
2021/05/10 07:23:38;;;;;;;2.10;1.60;;;;;;;35.16;17.28;100502.11;104308;1099;77128;-73
2021/05/10 07:25:47;;;;;;;2.50;2.10;;;;;;;35.00;17.58;100503.16;104288;1104;77387;-76
2021/05/10 07:27:53;;;;;;;3.90;1.90;;;;;;;35.27;17.50;100496.87;104323;1104;79379;-63
2021/05/10 07:29:58;;;;;;;5.40;2.10;;;;;;;35.20;17.89;100497.45;104336;1098;78988;-61
2021/05/10 07:32:05;;;;;;;4.60;1.70;;;;;;;35.61;17.52;100484.30;104290;1104;79657;-59
2021/05/10 07:34:11;;;;;;;3.10;2.10;;;;;;;35.56;17.33;100488.19;104324;1104;78235;-74
2021/05/10 07:36:17;;;;;;;5.60;1.80;;;;;;;35.39;15.96;100494.03;104342;1104;79260;-73
2021/05/10 07:38:22;;;;;;;2.80;2.00;;;;;;;34.36;17.25;100479.23;104297;1098;78954;-59
2021/05/10 07:40:31;;;;;;;2.40;2.00;;;;;;;34.02;17.91;100490.78;104301;1104;78844;-60
2021/05/10 07:42:38;;;;;;;4.20;1.70;;;;;;;34.26;17.96;100476.88;104303;1104;76743;-74
2021/05/10 07:44:44;;;;;;;2.80;1.80;;;;;;;34.75;18.12;100482.66;104325;1104;78490;-74
2021/05/10 07:46:49;;;;;;;2.50;1.80;;;;;;;34.28;17.34;100482.95;104309;1104;78485;-76
2021/05/10 07:48:55;;;;;;;3.00;1.90;;;;;;;34.18;18.79;100482.57;104311;1104;78648;-77
2021/05/10 07:51:01;;;;;;;2.40;1.60;;;;;;;34.65;17.75;100485.89;104282;1104;79501;-74
2021/05/10 07:53:08;;;;;;;2.60;1.60;;;;;;;34.37;17.53;100480.89;104313;1104;78213;-60
2021/05/10 07:55:18;;;;;;;1.80;1.30;;;;;;;34.10;17.67;100480.67;104377;1104;78367;-62
2021/05/10 07:57:27;;;;;;;3.30;1.50;;;;;;;34.11;17.79;100477.54;104289;1104;77951;-61
2021/05/10 07:59:37;;;;;;;2.30;1.90;;;;;;;34.19;18.22;100482.25;104310;1104;78277;-63
2021/05/10 08:01:43;;;;;;;2.90;1.80;;;;;;;33.81;17.80;100493.61;104328;1104;77262;-63
2021/05/10 08:03:49;;;;;;;3.00;1.80;;;;;;;33.79;17.80;100489.48;104377;1104;77834;-61
2021/05/10 08:05:55;;;;;;;3.40;1.90;;;;;;;33.51;18.48;100483.59;104340;1098;79717;-60
2021/05/10 08:08:02;;;;;;;2.10;1.70;;;;;;;33.83;17.93;100480.06;104378;1104;76955;-74
2021/05/10 08:10:09;;;;;;;2.60;1.60;;;;;;;33.69;18.57;100481.49;104386;1104;78047;-73
2021/05/10 08:12:15;;;;;;;3.10;1.70;;;;;;;33.76;18.26;100464.97;104379;1104;78242;-75
2021/05/10 08:14:21;;;;;;;2.20;1.30;;;;;;;34.16;18.41;100468.08;104355;1105;78150;-73
2021/05/10 08:16:27;;;;;;;2.70;2.00;;;;;;;34.26;17.79;100478.86;104334;1104;78144;-73
2021/05/10 08:18:33;;;;;;;1.90;1.60;;;;;;;33.64;17.14;100478.90;104363;1104;79280;-61
2021/05/10 08:20:38;;;;;;;2.70;1.60;;;;;;;33.52;18.19;100479.61;104366;1099;78799;-61
2021/05/10 08:22:46;;;;;;;3.10;1.50;;;;;;;33.38;17.41;100470.63;104353;1100;78276;-72
2021/05/10 08:24:51;;;;;;;2.40;1.50;;;;;;;33.08;18.11;100467.03;104338;1098;77464;-71
2021/05/10 08:26:57;;;;;;;2.20;1.40;;;;;;;33.44;18.64;100469.28;104488;1087;79567;-63
2021/05/10 08:29:03;;;;;;;2.30;1.80;;;;;;;33.39;17.58;100475.09;104418;1104;78689;-61
2021/05/10 08:31:09;;;;;;;2.40;1.60;;;;;;;32.70;17.36;100482.98;104328;1104;79369;-62
2021/05/10 08:33:15;;;;;;;1.70;1.40;;;;;;;32.80;18.79;100474.20;104347;1104;78528;-74
2021/05/10 08:35:20;;;;;;;2.20;1.60;;;;;;;32.94;18.26;100465.58;104323;1104;78578;-73
2021/05/10 08:37:28;;;;;;;2.20;1.30;;;;;;;32.79;18.18;100461.39;104312;1104;78003;-71
2021/05/10 08:39:34;;;;;;;2.60;1.70;;;;;;;32.93;18.43;100469.56;104382;1104;78497;-73
2021/05/10 08:41:41;;;;;;;2.10;1.50;;;;;;;33.14;18.88;100476.06;104322;1104;77931;-62
2021/05/10 08:43:46;;;;;;;2.90;1.30;;;;;;;33.09;18.11;100463.08;104367;1098;78054;-63
2021/05/10 08:45:55;;;;;;;3.40;1.60;;;;;;;32.48;18.52;100466.39;104352;1104;78238;-60
2021/05/10 08:48:01;;;;;;;1.60;1.30;;;;;;;31.93;18.83;100461.53;104384;1104;79309;-73
2021/05/10 08:50:12;;;;;;;3.10;1.50;;;;;;;31.88;19.06;100456.12;104423;1099;78822;-73
2021/05/10 08:52:21;;;;;;;2.30;1.50;;;;;;;31.81;18.93;100452.18;104346;1104;79791;-73
2021/05/10 08:54:28;;;;;;;1.80;1.20;;;;;;;31.30;18.92;100453.75;104310;1104;77567;-72
2021/05/10 08:56:34;;;;;;;2.60;1.60;;;;;;;31.91;19.65;100438.69;104339;1100;78508;-61
2021/05/10 08:58:42;;;;;;;1.80;1.40;;;;;;;32.11;19.32;100442.81;104336;1104;77101;-60
2021/05/10 09:00:56;;;;;;;2.50;1.70;;;;;;;32.39;19.38;100454.40;104359;1104;78280;-60
2021/05/10 09:03:14;;;;;;;1.90;1.40;;;;;;;32.36;18.94;100443.91;104373;1104;76831;-60
2021/05/10 09:05:23;;;;;;;4.20;1.50;;;;;;;32.64;19.15;100450.73;104348;1104;77879;-58
2021/05/10 09:07:29;;;;;;;3.10;1.50;;;;;;;32.89;18.95;100455.41;104409;1098;78554;-74
2021/05/10 09:09:52;;;;;;;2.10;1.30;;;;;;;32.40;18.48;100450.46;104348;1104;79449;-75
2021/05/10 09:11:59;;;;;;;2.60;1.30;;;;;;;31.76;18.20;100453.15;104341;1104;78814;-58
2021/05/10 09:14:05;;;;;;;3.00;1.30;;;;;;;31.46;19.29;100452.16;104361;1104;78889;-62
2021/05/10 09:16:14;;;;;;;3.30;1.40;;;;;;;31.07;18.95;100451.41;104294;1104;79481;-60
2021/05/10 09:18:23;;;;;;;3.70;1.30;;;;;;;30.36;18.96;100448.59;104363;1104;78862;-61
2021/05/10 09:20:31;;;;;;;1.80;1.20;;;;;;;29.77;19.57;100438.64;104366;1097;78367;-61
2021/05/10 09:22:54;;;;;;;1.60;1.20;;;;;;;29.44;21.08;100439.16;104339;1104;78356;-62
2021/05/10 09:24:59;;;;;;;4.00;1.30;;;;;;;29.44;21.41;100439.16;104356;1104;79864;-63
2021/05/10 09:27:30;;;;;;;3.20;1.70;;;;;;;29.27;20.91;100445.38;104316;1104;77419;-64
2021/05/10 09:29:35;;;;;;;2.10;1.40;;;;;;;28.45;20.94;100437.00;104334;1104;76825;-61
2021/05/10 09:31:50;;;;;;;3.00;1.50;;;;;;;27.73;21.65;100452.38;104304;1099;79103;-62
2021/05/10 09:33:57;;;;;;;1.60;1.10;;;;;;;27.76;22.23;100446.22;104303;1104;78113;-62
2021/05/10 09:36:06;;;;;;;2.70;1.20;;;;;;;27.63;21.90;100443.38;104355;1104;77187;-62
2021/05/10 09:38:12;;;;;;;3.30;1.40;;;;;;;27.36;22.44;100430.95;104303;1104;78122;-62
2021/05/10 09:40:17;;;;;;;4.40;1.40;;;;;;;26.96;22.96;100442.61;104363;1104;78250;-62
2021/05/10 09:42:24;;;;;;;2.20;1.60;;;;;;;26.80;23.58;100438.38;104326;1104;79327;-73
2021/05/10 09:44:42;;;;;;;1.60;1.20;;;;;;;27.08;23.76;100437.47;104323;1104;77867;-68
2021/05/10 09:47:01;;;;;;;3.40;1.50;;;;;;;26.95;23.54;100439.00;104365;1104;79646;-69
2021/05/10 09:49:10;;;;;;;1.80;1.30;;;;;;;26.83;23.65;100435.02;104349;1104;77951;-72